createdAt,value
2022-08-11T00:04:17.902Z,31.67
2022-08-11T00:09:21.321Z,31.71
2022-08-11T00:14:36.032Z,31.71
2022-08-11T00:20:15.392Z,31.59
2022-08-11T00:25:11.183Z,31.57
2022-08-11T00:30:13.455Z,31.65
2022-08-11T00:35:54.532Z,31.83
2022-08-11T00:40:44.116Z,31.84
2022-08-11T00:46:05.689Z,31.72
2022-08-11T00:51:22.367Z,31.95
2022-08-11T00:56:42.569Z,32.20
2022-08-11T01:01:53.555Z,32.76
2022-08-11T01:07:13.714Z,32.63
2022-08-11T01:12:15.587Z,32.92
2022-08-11T01:17:32.266Z,32.88
2022-08-11T01:23:12.517Z,32.83
2022-08-11T01:28:32.118Z,32.94
2022-08-11T01:34:01.416Z,32.76
2022-08-11T01:39:21.480Z,33.09
2022-08-11T01:44:37.938Z,33.37
2022-08-11T01:50:08.550Z,33.26
2022-08-11T01:55:30.214Z,33.17
2022-08-11T02:00:36.181Z,33.61
2022-08-11T02:05:40.703Z,33.91
2022-08-11T02:11:08.556Z,34.02
2022-08-11T02:16:21.593Z,34.17
2022-08-11T02:21:59.779Z,34.02
2022-08-11T02:27:09.707Z,34.04
2022-08-11T02:32:32.653Z,33.95
2022-08-11T02:37:33.987Z,34.26
2022-08-11T02:42:41.957Z,34.18
2022-08-11T02:48:22.127Z,34.21
2022-08-11T02:53:31.970Z,34.23
2022-08-11T02:58:35.386Z,34.42
2022-08-11T03:03:44.052Z,34.10
2022-08-11T03:08:51.182Z,34.14
2022-08-11T03:14:16.995Z,34.21
2022-08-11T03:19:18.298Z,34.42
2022-08-11T03:24:28.289Z,34.38
2022-08-11T03:29:35.445Z,34.44
2022-08-11T03:34:38.969Z,34.57
2022-08-11T03:39:57.692Z,34.70
2022-08-11T03:45:04.722Z,34.76
2022-08-11T03:50:13.371Z,34.77
2022-08-11T03:55:24.209Z,34.74
2022-08-11T04:00:43.985Z,34.70
2022-08-11T04:05:45.515Z,34.55
2022-08-11T04:10:53.096Z,34.86
2022-08-11T04:16:16.343Z,34.93
2022-08-11T04:21:25.504Z,35.18
2022-08-11T04:26:45.333Z,35.22
2022-08-11T04:31:51.649Z,35.44
2022-08-11T04:37:23.573Z,35.56
2022-08-11T04:43:02.195Z,35.58
2022-08-11T04:48:28.329Z,35.55
2022-08-11T04:53:59.808Z,35.61
2022-08-11T04:59:32.491Z,35.43
2022-08-11T05:05:11.183Z,35.64
2022-08-11T05:10:22.180Z,35.45
2022-08-11T05:15:51.571Z,35.29
2022-08-11T05:21:13.648Z,35.42
2022-08-11T05:26:46.422Z,35.39
2022-08-11T05:32:13.802Z,35.50
2022-08-11T05:37:28.055Z,35.50
2022-08-11T05:42:49.983Z,35.51
2022-08-11T05:48:10.342Z,35.49
2022-08-11T05:53:31.738Z,35.29
2022-08-11T05:58:49.333Z,35.57
2022-08-11T06:04:11.052Z,35.44
2022-08-11T06:09:14.349Z,35.57
2022-08-11T06:14:15.891Z,35.40
2022-08-11T06:19:21.110Z,35.38
2022-08-11T06:24:22.847Z,35.57
2022-08-11T06:29:37.825Z,35.94
2022-08-11T06:34:59.300Z,35.99
2022-08-11T06:40:07.248Z,36.44
2022-08-11T06:45:27.364Z,36.50
2022-08-11T06:50:47.992Z,36.72
2022-08-11T06:56:08.080Z,36.84
2022-08-11T07:01:13.942Z,36.80
2022-08-11T07:06:29.083Z,36.85
2022-08-11T07:12:27.767Z,36.73
2022-08-11T07:17:31.658Z,36.89
2022-08-11T07:23:10.230Z,36.96
2022-08-11T07:28:36.962Z,36.72
2022-08-11T07:34:08.374Z,36.71
2022-08-11T07:39:08.147Z,36.43
2022-08-11T07:44:11.462Z,36.53
2022-08-11T07:49:31.451Z,36.40
2022-08-11T07:54:33.567Z,36.05
2022-08-11T08:00:00.561Z,36.02
2022-08-11T08:05:33.363Z,35.90
2022-08-11T08:10:53.619Z,35.55
2022-08-11T08:16:13.968Z,34.99
2022-08-11T08:21:16.759Z,35.05
2022-08-11T08:26:36.953Z,34.49
2022-08-11T08:31:39.011Z,34.00
2022-08-11T08:36:42.035Z,34.07
2022-08-11T08:41:43.719Z,33.79
2022-08-11T08:46:47.751Z,33.43
2022-08-11T08:52:01.109Z,33.45
2022-08-11T08:57:15.644Z,33.02
2022-08-11T09:02:34.328Z,32.70
2022-08-11T09:07:39.825Z,32.70
2022-08-11T09:12:44.696Z,32.89
2022-08-11T09:17:47.348Z,32.60
2022-08-11T09:24:07.133Z,32.90
2022-08-11T09:28:30.603Z,32.73
2022-08-11T09:33:33.096Z,32.51
2022-08-11T09:38:53.053Z,32.38
2022-08-11T09:44:13.142Z,32.12
2022-08-11T09:49:14.545Z,31.54
2022-08-11T09:54:18.414Z,31.75
2022-08-11T09:59:20.899Z,31.52
2022-08-11T10:04:31.116Z,30.96
2022-08-11T10:09:40.657Z,30.64
2022-08-11T10:15:05.046Z,30.51
2022-08-11T10:20:07.972Z,30.56
2022-08-11T10:25:29.324Z,30.75
2022-08-11T10:30:49.644Z,30.43
2022-08-11T10:35:51.898Z,30.10
2022-08-11T10:41:14.403Z,30.18
2022-08-11T10:46:34.542Z,29.84
2022-08-11T10:51:58.656Z,29.50
2022-08-11T10:57:19.421Z,29.19
2022-08-11T11:02:21.334Z,28.76
2022-08-11T11:07:24.851Z,28.38
2022-08-11T11:12:45.130Z,28.03
2022-08-11T11:17:57.145Z,27.85
2022-08-11T11:23:01.710Z,27.59
2022-08-11T11:28:08.989Z,27.17
2022-08-11T11:33:16.703Z,27.29
2022-08-11T11:38:18.863Z,26.62
2022-08-11T11:43:20.649Z,26.34
2022-08-11T11:48:22.210Z,25.78
2022-08-11T11:53:23.658Z,25.92
2022-08-11T11:58:45.266Z,25.89
2022-08-11T12:03:49.322Z,25.20
2022-08-11T12:08:52.912Z,24.89
2022-08-11T12:13:55.454Z,24.48
2022-08-11T12:18:58.734Z,24.28
2022-08-11T12:24:19.876Z,23.74
2022-08-11T12:29:29.564Z,23.50
2022-08-11T12:34:30.963Z,23.61
2022-08-11T12:40:10.841Z,23.31
2022-08-11T12:45:28.817Z,23.08
2022-08-11T12:50:48.822Z,22.90
2022-08-11T12:56:09.680Z,22.50
2022-08-11T13:01:32.089Z,22.21
2022-08-11T13:12:21.585Z,21.83
